Nearby METAR Reports

 

KGRB - Ashwaubenon, Wisconsin, USA
Distance from station: WNW 5mi, 9km
Updated: 03/22/2023 11:53pm
Few Clouds
Few Clouds
 Wind from WNW
Wind: WNW 13 mph , 20 km/h
Temperature: 36°F , 2°C
Wind Chill: 27°F , -3°C
Dew Point: 28°F , -2°C
Humidity: 75%
Barometer: 29.88 inHg , 1011.9 hPa
Clouds: Few Clouds
Visibility: 10 miles , 16 km
Cloud details: Few Clouds 12000 ft
2023/03/23 04:53 KGRB 230453Z 30011KT 10SM FEW120 02/M02 A2988 RMK AO2 SLP126 T00221022
KOCQ - Oconto, Wisconsin, USA
Distance from station: N 27mi, 43km
Updated: 03/22/2023 11:55pm
Mostly cloudy
Mostly cloudy
 Wind from WNW
Wind: WNW 8 mph , 13 km/h
Temperature: 36°F , 2°C
Wind Chill: 30°F , -1°C
Dew Point: 30°F , -1°C
Humidity: 81%
Barometer: 29.88 inHg , 1011.9 hPa
Clouds: Mostly cloudy
Visibility: 10 miles , 16 km
Cloud details: Mostly cloudy 11000 ft
2023/03/23 04:55 KOCQ 230455Z AUTO 29007KT 10SM BKN110 02/M01 A2988 RMK AO1 T00201007
KATW - Appleton/Outagam, Wisconsin, USA
Distance from station: WSW 29mi, 47km
Updated: 03/22/2023 11:55pm
Partly cloudy
Partly cloudy
 Wind from WNW
Wind: WNW 13 mph , 20 km/h
Temperature: 34°F , 1°C
Wind Chill: 25°F , -4°C
Dew Point: 28°F , -2°C
Humidity: 81%
Barometer: 29.89 inHg , 1012.2 hPa
Clouds: Partly cloudy
Visibility: 10 miles , 16 km
Cloud details: Partly cloudy 9000 ft
Partly cloudy 12000 ft
2023/03/23 04:55 KATW 230455Z AUTO 30011KT 10SM SCT090 SCT120 01/M02 A2989 RMK AO2
 
KMTW - Manitowac Muni, Wisconsin, USA
Distance from station: SE 31mi, 49km
Updated: 03/22/2023 11:56pm
Overcast
Overcast
 Wind from WNW
Wind: WNW 10 mph , 17 km/h
Temperature: 37°F , 3°C
Wind Chill: 30°F , -1°C
Dew Point: 30°F , -1°C
Humidity: 75%
Barometer: 29.90 inHg , 1012.5 hPa
Clouds: Overcast
Visibility: 10 miles , 16 km
Cloud details: Overcast 11000 ft
2023/03/23 04:56 KMTW 230456Z AUTO 30009KT 10SM OVC110 03/M01 A2990 RMK AO2 SLP129 T00331006 400611011
KCLI - Clintonville, Wisconsin, USA
Distance from station: WNW 37mi, 59km
Updated: 03/22/2023 11:55pm
Overcast
Overcast
 Wind from NW
Wind: NW 7 mph , 11 km/h
Temperature: 34°F , 1°C
Wind Chill: 28°F , -2°C
Dew Point: 28°F , -2°C
Humidity: 81%
Barometer: 29.91 inHg , 1012.9 hPa
Clouds: Overcast
Visibility: 10 miles , 16 km
Cloud details: Mostly cloudy 2200 ft
Overcast 11000 ft
2023/03/23 04:55 KCLI 230455Z AUTO 31006KT 10SM BKN022 OVC110 01/M02 A2991 RMK AO2 T00131023
KSUE - Sturgeon Bay, Wisconsin, USA
Distance from station: NE 39mi, 62km
Updated: 03/22/2023 11:56pm
Few Clouds
Few Clouds
 Wind from NW
Wind: NW 9 mph , 15 km/h
Temperature: 36°F , 2°C
Wind Chill: 29°F , -2°C
Dew Point: 28°F , -2°C
Humidity: 75%
Barometer: 29.88 inHg , 1011.9 hPa
Clouds: Few Clouds
Visibility: 10 miles , 16 km
Cloud details: Few Clouds 11000 ft
2023/03/23 04:56 KSUE 230456Z AUTO 31008KT 10SM FEW110 02/M02 A2988 RMK AO2 SLP122 T00221017 FZRANO
 
KOSH - Oshkosh, Wisconsin, USA
Distance from station: SW 44mi, 72km
Updated: 03/22/2023 11:53pm
Overcast
Overcast
 Wind from NW
Wind: NW 7 mph , 11 km/h
Temperature: 37°F , 3°C
Wind Chill: 32°F , 0°C
Dew Point: 30°F , -1°C
Humidity: 75%
Barometer: 29.89 inHg , 1012.2 hPa
Clouds: Overcast
Visibility: 10 miles , 16 km
Cloud details: Overcast 11000 ft
2023/03/23 04:53 KOSH 230453Z AUTO 31006KT 10SM OVC110 03/M01 A2989 RMK AO2 SLP131 T00331011
KMNM - Menominee, Michigan, USA
Distance from station: NNE 48mi, 77km
Updated: 03/22/2023 11:57pm
Partly cloudy
Partly cloudy
 
Temperature: 36°F , 2°C
Dew Point: 30°F , -1°C
Humidity: 81%
Barometer: 29.89 inHg , 1012.2 hPa
Clouds: Partly cloudy
Visibility: 10 miles , 16 km
Cloud details: Partly cloudy 12000 ft
2023/03/23 04:57 KMNM 230457Z AUTO 10SM SCT120 02/M01 A2989 RMK AO2 SLP144 T00221011 400561028 FZRANO PNO $
KSBM - Sheboygan, Wisconsin, USA
Distance from station: S 49mi, 79km
Updated: 03/22/2023 11:53pm
Clear
Clear
 Wind from NW
Wind: NW 8 mph , 13 km/h
Temperature: 39°F , 4°C
Wind Chill: 33°F , 1°C
Dew Point: 34°F , 1°C
Humidity: 81%
Barometer: 29.89 inHg , 1012.2 hPa
Clouds: Clear
Visibility: 10 miles , 16 km
2023/03/23 04:53 KSBM 230453Z AUTO 31007KT 10SM CLR 04/01 A2989 RMK AO2 SLP127 T00440006
Weather Underground PWS KWIGREEN184 PWS United States Weather Group
USA Weather Finder Award